Maran Pythia — SVAQ5 — position and weather

sailwx.info

Track history (hours):
 
Tides and Currents Weather Stations Pressure Air Temp Water Temp Dewpoint Dewpoint Depression Visibility Wind Speed Wind Dir Waves Ship Positions

Maran Pythia

Last reported at 2015-Jan-14 11:06 UTC. Time now 2015-Jan-26 02:22 UTC.
Position N 36°10' E 027°08'.
Warning: this ship's position is 11 days out of date.

Length 274 m; draft 16 m.

Type: Tanker. MMSI: 240893000.

Date/timePositionNaut miles runAvg speedWind from/ knotsBaromVisibWave heightAir tempDewpointWater temp
2015-Jan-14 11:06N 36°10' E 027°08'5912.9
2015-Jan-14 06:29N 37°03' E 026°33'1313.9
2015-Jan-14 05:33N 37°11' E 026°20'1313.4
2015-Jan-14 04:33N 37°18' E 026°06'1313.4
2015-Jan-14 03:33N 37°27' E 025°53'1313.1
2015-Jan-14 02:33N 37°40' E 025°51'1313.3
2015-Jan-14 01:33N 37°53' E 025°49'12012.8
2015-Jan-13 16:11N 39°53' E 025°46'  
2015-Jan-10 10:33N 41°14' E 029°08'6 5.7
2015-Jan-10 09:32N 41°19' E 029°03'  
2015-Jan-06 17:33N 44°29' E 037°33'1313.1
2015-Jan-06 16:33N 44°37' E 037°48'5 5.4
2015-Jan-06 15:33N 44°42' E 037°50'0 0.0
2015-Jan-06 14:31N 44°42' E 037°50'0 0.0
2015-Jan-06 13:31N 44°42' E 037°50'0 0.0
2015-Jan-06 12:31N 44°42' E 037°50'0 0.0
2015-Jan-06 11:31N 44°42' E 037°50'0 0.0
2015-Jan-06 10:31N 44°42' E 037°50'0 0.0
2015-Jan-06 09:31N 44°42' E 037°50'0 0.0
2015-Jan-06 08:31N 44°42' E 037°50'0 0.0
2015-Jan-06 07:31N 44°42' E 037°50'0 0.0
2015-Jan-06 06:31N 44°42' E 037°50'0 0.0
2015-Jan-06 05:31N 44°42' E 037°50'0 0.0
2015-Jan-06 04:31N 44°42' E 037°50'0 0.0
2015-Jan-06 03:31N 44°42' E 037°50'0 0.0
2015-Jan-06 02:31N 44°42' E 037°50'0 0.0
2015-Jan-06 01:31N 44°42' E 037°50'0 0.0
2015-Jan-06 00:31N 44°42' E 037°50'0 0.0
2015-Jan-05 23:31N 44°42' E 037°50'0 0.0
2015-Jan-05 22:31N 44°42' E 037°50'0 0.0
2015-Jan-05 21:31N 44°42' E 037°50'0 0.0
2015-Jan-05 20:31N 44°42' E 037°50'0 0.0
2015-Jan-05 19:31N 44°42' E 037°50'0 0.0
2015-Jan-05 18:31N 44°42' E 037°50'0 0.2
2015-Jan-05 17:33N 44°42' E 037°50'5 4.8
2015-Jan-05 16:33N 44°38' E 037°52'3 3.5
2015-Jan-05 15:33N 44°34' E 037°52'1110.8
2015-Jan-05 14:33N 44°26' E 037°41'3 2.7
2015-Jan-05 13:33N 44°25' E 037°38'1 1.1
2015-Jan-05 12:34N 44°25' E 037°36'1 1.2
2015-Jan-05 11:33N 44°25' E 037°35'1 1.0
2015-Jan-05 10:33N 44°26' E 037°34'7 7.4
2015-Jan-05 09:33N 44°19' E 037°35'1110.3
2015-Jan-05 08:31N 44°08' E 037°37'1 0.6
2015-Jan-05 06:26N 44°09' E 037°35'1 0.9
2015-Jan-05 05:29N 44°09' E 037°34'7 1.0
2015-Jan-04 22:32N 44°17' E 037°34'4 3.6
2015-Jan-04 21:33N 44°20' E 037°34'4 4.0
2015-Jan-04 20:33N 44°24' E 037°36'3 2.8
2015-Jan-04 19:33N 44°26' E 037°39'5 5.4
2015-Jan-04 18:33N 44°30' E 037°43'2 2.4
2015-Jan-04 17:33N 44°28' E 037°43'2 2.3
2015-Jan-04 16:33N 44°26' E 037°43'2 2.2
2015-Jan-04 15:32N 44°24' E 037°44'9 9.0
2015-Jan-04 14:33N 44°20' E 037°55'1110.7
2015-Jan-04 13:33N 44°15' E 038°08'1010.4
2015-Jan-04 12:33N 44°08' E 038°20'  
Track history (hours):
 
Tides and Currents Weather Stations Pressure Air Temp Water Temp Dewpoint Dewpoint Depression Visibility Wind Speed Wind Dir Waves Ship Positions

Maran Pythia

Last reported at 2015-Jan-14 11:06 UTC. Time now 2015-Jan-26 02:22 UTC.
Position N 36°10' E 027°08'.
Warning: this ship's position is 11 days out of date.

Length 274 m; draft 16 m.

Type: Tanker. MMSI: 240893000.

Date/timePositionNaut miles runAvg speedWind from/ knotsBaromVisibWave heightAir tempDewpointWater temp
2015-Jan-14 11:06N 36°10' E 027°08'5912.9
2015-Jan-14 06:29N 37°03' E 026°33'1313.9
2015-Jan-14 05:33N 37°11' E 026°20'1313.4
2015-Jan-14 04:33N 37°18' E 026°06'1313.4
2015-Jan-14 03:33N 37°27' E 025°53'1313.1
2015-Jan-14 02:33N 37°40' E 025°51'1313.3
2015-Jan-14 01:33N 37°53' E 025°49'12012.8
2015-Jan-13 16:11N 39°53' E 025°46'  
2015-Jan-10 10:33N 41°14' E 029°08'6 5.7
2015-Jan-10 09:32N 41°19' E 029°03'  
2015-Jan-06 17:33N 44°29' E 037°33'1313.1
2015-Jan-06 16:33N 44°37' E 037°48'5 5.4
2015-Jan-06 15:33N 44°42' E 037°50'0 0.0
2015-Jan-06 14:31N 44°42' E 037°50'0 0.0
2015-Jan-06 13:31N 44°42' E 037°50'0 0.0
2015-Jan-06 12:31N 44°42' E 037°50'0 0.0
2015-Jan-06 11:31N 44°42' E 037°50'0 0.0
2015-Jan-06 10:31N 44°42' E 037°50'0 0.0
2015-Jan-06 09:31N 44°42' E 037°50'0 0.0
2015-Jan-06 08:31N 44°42' E 037°50'0 0.0
2015-Jan-06 07:31N 44°42' E 037°50'0 0.0
2015-Jan-06 06:31N 44°42' E 037°50'0 0.0
2015-Jan-06 05:31N 44°42' E 037°50'0 0.0
2015-Jan-06 04:31N 44°42' E 037°50'0 0.0
2015-Jan-06 03:31N 44°42' E 037°50'0 0.0
2015-Jan-06 02:31N 44°42' E 037°50'0 0.0
2015-Jan-06 01:31N 44°42' E 037°50'0 0.0
2015-Jan-06 00:31N 44°42' E 037°50'0 0.0
2015-Jan-05 23:31N 44°42' E 037°50'0 0.0
2015-Jan-05 22:31N 44°42' E 037°50'0 0.0
2015-Jan-05 21:31N 44°42' E 037°50'0 0.0
2015-Jan-05 20:31N 44°42' E 037°50'0 0.0
2015-Jan-05 19:31N 44°42' E 037°50'0 0.0
2015-Jan-05 18:31N 44°42' E 037°50'0 0.2
2015-Jan-05 17:33N 44°42' E 037°50'5 4.8
2015-Jan-05 16:33N 44°38' E 037°52'3 3.5
2015-Jan-05 15:33N 44°34' E 037°52'1110.8
2015-Jan-05 14:33N 44°26' E 037°41'3 2.7
2015-Jan-05 13:33N 44°25' E 037°38'1 1.1
2015-Jan-05 12:34N 44°25' E 037°36'1 1.2
2015-Jan-05 11:33N 44°25' E 037°35'1 1.0
2015-Jan-05 10:33N 44°26' E 037°34'7 7.4
2015-Jan-05 09:33N 44°19' E 037°35'1110.3
2015-Jan-05 08:31N 44°08' E 037°37'1 0.6
2015-Jan-05 06:26N 44°09' E 037°35'1 0.9
2015-Jan-05 05:29N 44°09' E 037°34'7 1.0
2015-Jan-04 22:32N 44°17' E 037°34'4 3.6
2015-Jan-04 21:33N 44°20' E 037°34'4 4.0
2015-Jan-04 20:33N 44°24' E 037°36'3 2.8
2015-Jan-04 19:33N 44°26' E 037°39'5 5.4
2015-Jan-04 18:33N 44°30' E 037°43'2 2.4
2015-Jan-04 17:33N 44°28' E 037°43'2 2.3
2015-Jan-04 16:33N 44°26' E 037°43'2 2.2
2015-Jan-04 15:32N 44°24' E 037°44'9 9.0
2015-Jan-04 14:33N 44°20' E 037°55'1110.7
2015-Jan-04 13:33N 44°15' E 038°08'1010.4
2015-Jan-04 12:33N 44°08' E 038°20'  

Dump ship's entire track history